Time;durP1;ratioP1;P1;durP2;ratioP2;P2;SDS_P1;SDS_P2;PMS_P1;PMS_P2;Temp;Humidity;BMP_temperature;BMP_pressure;BME280_temperature;BME280_humidity;BME280_pressure;Samples;Min_cycle;Max_cycle;Signal;HPM_P1;HPM_P2
2022/04/16 00:01:44;;;;;;;3.20;3.00;;;10.30;99.30;;;11.03;63.53;98859.06;5228566;28;20264;-56
2022/04/16 00:04:19;;;;;;;3.90;3.70;;;10.40;99.40;;;11.01;62.30;98858.06;5222105;28;20280;-55
2022/04/16 00:06:52;;;;;;;3.33;3.13;;;10.30;99.40;;;10.91;62.77;98856.53;5224651;28;20300;-58
2022/04/16 00:09:25;;;;;;;3.40;3.10;;;10.20;99.30;;;10.78;62.83;98854.72;5226411;28;20646;-58
2022/04/16 00:11:58;;;;;;;3.57;3.30;;;10.10;99.60;;;10.71;63.70;98857.66;5229381;28;20193;-56
2022/04/16 00:14:32;;;;;;;3.47;3.27;;;10.00;99.60;;;10.74;63.07;98862.09;5228409;28;20581;-58
2022/04/16 00:17:06;;;;;;;3.67;3.47;;;10.10;99.50;;;10.79;63.05;98866.75;5229378;28;20232;-57
2022/04/16 00:19:40;;;;;;;3.73;3.53;;;10.10;99.70;;;10.72;63.44;98864.53;5227584;28;20664;-57
2022/04/16 00:22:14;;;;;;;4.10;3.90;;;10.00;99.50;;;10.76;63.47;98860.53;5226191;28;20309;-57
2022/04/16 00:24:50;;;;;;;3.10;2.90;;;10.10;99.90;;;10.71;63.44;98862.75;5228069;28;20264;-57
2022/04/16 00:27:24;;;;;;;3.83;3.60;;;10.00;99.60;;;10.73;64.10;98865.41;5228377;28;20650;-56
2022/04/16 00:29:57;;;;;;;4.07;3.77;;;10.00;99.90;;;10.67;63.19;98860.75;5228264;28;20712;-58
2022/04/16 00:32:30;;;;;;;3.57;3.37;;;10.00;99.80;;;10.59;64.12;98859.31;5229021;28;20202;-58
2022/04/16 00:35:05;;;;;;;3.63;3.33;;;9.90;99.60;;;10.41;64.60;98860.50;5229228;28;20251;-55
2022/04/16 00:37:38;;;;;;;4.40;4.00;;;9.70;99.90;;;10.36;64.25;98857.63;5227588;28;20292;-57
2022/04/16 00:40:12;;;;;;;3.60;3.40;;;9.70;99.90;;;10.31;64.11;98859.84;5227490;28;20201;-58
2022/04/16 00:42:46;;;;;;;3.63;3.43;;;9.70;99.90;;;10.31;63.96;98854.72;5228199;28;20312;-54
2022/04/16 00:45:19;;;;;;;3.87;3.67;;;9.60;99.90;;;10.21;65.13;98844.53;5227690;28;20260;-58
2022/04/16 00:47:53;;;;;;;3.73;3.53;;;9.60;99.90;;;10.10;64.94;98848.88;5227949;28;20198;-56
2022/04/16 00:50:28;;;;;;;4.27;3.97;;;9.40;99.90;;;10.21;64.35;98862.44;5228257;28;20212;-58
2022/04/16 00:53:02;;;;;;;4.20;3.90;;;9.50;99.90;;;10.15;64.82;98857.75;5226979;28;20197;-56
2022/04/16 00:55:38;;;;;;;3.93;3.73;;;9.50;99.90;;;10.24;66.79;98851.56;5225753;28;20704;-58
2022/04/16 00:58:11;;;;;;;3.90;3.70;;;9.60;99.90;;;10.23;65.04;98853.22;5228295;28;20240;-58
2022/04/16 01:00:44;;;;;;;4.30;4.00;;;9.60;99.90;;;10.23;65.71;98853.22;5228364;28;20224;-56
2022/04/16 01:03:18;;;;;;;4.10;3.80;;;9.60;99.90;;;10.27;65.96;98845.06;5226129;28;20205;-54
2022/04/16 01:05:55;;;;;;;3.87;3.67;;;9.60;99.90;;;10.25;67.11;98844.03;5226240;28;20221;-54
2022/04/16 01:08:28;;;;;;;3.57;3.37;;;9.60;99.90;;;10.27;67.32;98842.50;5221473;28;20281;-54
2022/04/16 01:11:01;;;;;;;4.33;4.03;;;9.60;99.90;;;10.24;66.83;98841.34;5223662;28;20193;-54
2022/04/16 01:13:36;;;;;;;3.97;3.77;;;9.50;99.90;;;10.11;67.23;98844.66;5225804;28;20762;-56
2022/04/16 01:16:09;;;;;;;4.23;3.93;;;9.30;99.90;;;10.03;68.25;98835.53;5226287;28;20297;-56
2022/04/16 01:18:47;;;;;;;4.40;4.13;;;9.30;99.90;;;9.99;67.69;98838.66;5227776;28;20200;-58
2022/04/16 01:21:21;;;;;;;4.13;3.93;;;9.20;99.90;;;9.98;67.55;98836.84;5226010;28;20248;-58
2022/04/16 01:23:56;;;;;;;4.33;3.97;;;9.20;99.90;;;10.00;68.37;98840.41;5227453;28;20246;-57
2022/04/16 01:26:29;;;;;;;3.70;3.50;;;9.20;99.90;;;10.01;67.84;98831.97;5228145;28;20275;-57
2022/04/16 01:29:02;;;;;;;4.40;4.10;;;9.30;99.90;;;9.95;67.59;98831.50;5228874;28;20198;-56
2022/04/16 01:31:35;;;;;;;3.83;3.53;;;9.20;99.90;;;9.94;68.68;98845.94;5226575;28;20247;-56
2022/04/16 01:34:09;;;;;;;4.13;3.87;;;9.10;99.90;;;9.73;69.22;98850.31;5222737;28;20212;-56
2022/04/16 01:36:42;;;;;;;3.83;3.63;;;8.90;99.90;;;9.68;69.02;98856.75;5223486;28;20300;-58
2022/04/16 01:39:16;;;;;;;3.90;3.70;;;8.90;99.90;;;9.73;69.40;98855.44;5225884;28;20248;-57
2022/04/16 01:41:49;;;;;;;4.00;3.80;;;8.80;99.90;;;9.70;69.93;98855.19;5227019;28;20316;-57
2022/04/16 01:44:22;;;;;;;4.10;3.90;;;8.80;99.90;;;9.67;69.36;98849.84;5227560;28;21171;-56
2022/04/16 01:46:56;;;;;;;4.37;4.00;;;8.70;99.90;;;9.64;70.24;98859.81;5226450;28;20197;-57
2022/04/16 01:49:29;;;;;;;4.17;3.87;;;8.70;99.90;;;9.44;70.70;98869.41;5226618;28;20624;-56
2022/04/16 01:52:02;;;;;;;4.03;3.67;;;8.60;99.90;;;9.51;69.63;98868.19;5225659;28;20228;-56
2022/04/16 01:54:36;;;;;;;4.03;3.80;;;8.60;99.90;;;9.53;70.69;98869.22;5221949;28;20201;-55
2022/04/16 01:57:09;;;;;;;4.03;3.80;;;8.50;99.90;;;9.43;70.86;98862.50;5220913;28;20689;-56
2022/04/16 01:59:42;;;;;;;4.47;4.17;;;8.50;99.90;;;9.17;71.68;98864.69;5226830;28;20259;-54
2022/04/16 02:02:16;;;;;;;4.00;3.80;;;8.30;99.90;;;9.19;72.25;98869.13;5225423;28;20279;-56
2022/04/16 02:04:51;;;;;;;3.73;3.33;;;8.30;99.90;;;9.13;72.55;98867.75;5223135;28;20310;-56
2022/04/16 02:07:24;;;;;;;4.37;4.07;;;8.20;99.90;;;8.98;72.82;98863.22;5224127;28;20202;-56
2022/04/16 02:09:58;;;;;;;4.13;3.93;;;8.10;99.90;;;8.95;73.10;98868.06;5224201;28;20271;-55
2022/04/16 02:12:32;;;;;;;4.43;4.13;;;8.10;99.90;;;8.96;72.71;98864.78;5225930;28;20200;-56
2022/04/16 02:15:07;;;;;;;3.73;3.47;;;8.10;99.90;;;8.98;72.98;98867.41;5225874;28;20636;-57
2022/04/16 02:17:40;;;;;;;4.30;4.10;;;8.10;99.90;;;8.96;73.01;98864.78;5224657;28;20291;-56
2022/04/16 02:20:13;;;;;;;4.17;3.87;;;8.00;99.90;;;8.92;73.13;98862.72;5223218;28;20228;-54
2022/04/16 02:22:47;;;;;;;3.90;3.70;;;8.00;99.90;;;8.98;73.14;98863.22;5223546;28;20324;-56
2022/04/16 02:25:23;;;;;;;4.80;4.47;;;8.00;99.90;;;8.65;73.37;98871.63;5225644;28;20266;-57
2022/04/16 02:27:57;;;;;;;4.37;4.07;;;7.80;99.90;;;8.67;74.14;98867.53;5224930;28;20208;-55
2022/04/16 02:30:30;;;;;;;3.47;3.27;;;7.80;99.90;;;8.75;74.25;98860.50;5225961;28;20229;-56
2022/04/16 02:33:03;;;;;;;4.10;3.90;;;7.80;99.90;;;8.61;74.37;98861.94;5223195;28;20221;-57
2022/04/16 02:35:37;;;;;;;4.67;4.30;;;7.70;99.90;;;8.64;74.11;98872.41;5218228;28;20242;-55
2022/04/16 02:38:10;;;;;;;4.00;3.80;;;7.70;99.90;;;8.62;73.91;98861.19;5218951;28;20661;-54
2022/04/16 02:40:44;;;;;;;4.27;4.07;;;7.70;99.90;;;8.58;74.24;98864.22;5221076;28;20229;-57
2022/04/16 02:43:17;;;;;;;4.33;4.03;;;7.60;99.90;;;8.53;74.39;98866.44;5225335;28;20252;-54
2022/04/16 02:48:41;;;;;;;4.23;4.03;;;7.60;99.90;;;8.55;73.95;98863.97;5222959;28;20193;-55
2022/04/16 02:51:14;;;;;;;4.30;4.00;;;7.60;99.90;;;8.45;74.23;98877.66;5219054;28;20288;-56
2022/04/16 02:53:47;;;;;;;4.50;4.20;;;7.50;99.90;;;8.38;74.69;98874.44;5223214;28;20278;-57
2022/04/16 02:56:22;;;;;;;4.70;4.33;;;7.50;99.90;;;8.48;74.40;98882.09;5221407;28;20674;-55
2022/04/16 02:58:55;;;;;;;4.00;3.70;;;7.50;99.90;;;8.46;74.69;98874.31;5225830;28;20640;-58
2022/04/16 03:01:28;;;;;;;4.37;4.07;;;7.60;99.90;;;8.51;74.94;98877.25;5225352;28;20231;-58
2022/04/16 03:04:01;;;;;;;4.40;4.10;;;7.70;99.90;;;8.57;74.58;98878.63;5224058;28;20587;-56
2022/04/16 03:06:34;;;;;;;4.27;4.07;;;7.70;99.90;;;8.60;74.51;98883.09;5225672;28;20220;-56
2022/04/16 03:09:08;;;;;;;4.47;4.17;;;7.80;99.90;;;8.57;74.55;98886.28;5223943;28;20715;-54
2022/04/16 03:11:42;;;;;;;4.00;3.70;;;7.70;99.90;;;8.57;74.26;98882.84;5226470;28;20287;-54
2022/04/16 03:20:09;;;;;;;4.27;3.97;;;7.50;99.90;;;8.25;75.09;98881.06;5145465;28;20207;-57
2022/04/16 03:22:44;;;;;;;3.87;3.57;;;7.40;99.90;;;8.24;75.47;98886.03;5212945;28;20306;-54
2022/04/16 03:25:17;;;;;;;4.63;4.33;;;7.40;99.90;;;8.26;75.21;98892.16;5227099;28;20266;-55
2022/04/16 03:27:52;;;;;;;3.97;3.77;;;7.40;99.90;;;8.33;75.43;98886.81;5228380;28;20289;-56
2022/04/16 03:30:26;;;;;;;4.10;3.90;;;7.40;99.90;;;8.28;75.38;98883.88;5228329;28;20203;-57
2022/04/16 03:32:59;;;;;;;4.67;4.37;;;7.40;99.90;;;8.25;75.49;98890.38;5226747;28;20289;-56
2022/04/16 03:35:32;;;;;;;4.40;4.10;;;7.30;99.90;;;8.12;76.13;98881.69;5227082;28;20243;-57
2022/04/16 03:38:06;;;;;;;4.30;4.10;;;7.20;99.90;;;8.09;76.00;98881.44;5225062;28;20204;-54
2022/04/16 03:40:40;;;;;;;4.60;4.30;;;7.10;99.90;;;8.03;75.91;98872.41;5227577;28;20284;-55
2022/04/16 03:43:15;;;;;;;4.37;3.97;;;7.10;99.90;;;7.89;76.94;98873.81;5223517;28;20228;-55
2022/04/16 03:45:48;;;;;;;4.30;4.00;;;7.10;99.90;;;7.74;77.84;98882.72;5229653;28;20313;-54
2022/04/16 03:48:21;;;;;;;4.70;4.40;;;7.00;99.90;;;7.80;76.95;98879.00;5227816;28;20626;-58
2022/04/16 03:50:54;;;;;;;4.80;4.40;;;6.90;99.90;;;7.84;77.41;98880.16;5227563;28;20292;-55
2022/04/16 03:53:27;;;;;;;4.70;4.33;;;6.90;99.90;;;7.85;76.88;98881.97;5226841;28;20200;-56
2022/04/16 04:01:45;;;;;;;4.67;4.47;;;7.00;99.90;;;7.74;76.24;98877.63;5226776;28;20212;-57
2022/04/16 04:04:18;;;;;;;4.60;4.30;;;6.90;99.90;;;7.72;76.61;98886.75;5226544;28;20252;-57
2022/04/16 04:06:51;;;;;;;4.77;4.37;;;6.80;99.90;;;7.56;77.78;98898.19;5226839;28;20296;-58
2022/04/16 04:09:24;;;;;;;4.50;4.20;;;6.70;99.90;;;7.53;77.13;98897.94;5230919;28;20545;-57
2022/04/16 04:11:58;;;;;;;5.00;4.70;;;6.70;99.90;;;7.57;77.39;98902.50;5227980;28;20228;-56
2022/04/16 04:14:32;;;;;;;4.70;4.40;;;6.80;99.90;;;7.54;78.44;98906.47;5224104;28;20253;-58
2022/04/16 04:17:07;;;;;;;4.53;4.23;;;6.80;99.90;;;7.60;77.76;98909.53;5226380;28;20246;-58
2022/04/16 04:19:42;;;;;;;4.67;4.37;;;6.80;99.90;;;7.68;77.59;98911.06;5226825;28;20235;-56
2022/04/16 04:22:17;;;;;;;4.70;4.40;;;6.80;99.90;;;7.62;79.08;98911.44;5221524;28;20282;-56
2022/04/16 04:24:50;;;;;;;4.07;3.87;;;6.90;99.90;;;7.67;78.42;98910.19;5226249;28;20248;-56
2022/04/16 04:27:23;;;;;;;4.67;4.30;;;6.80;99.90;;;7.61;77.41;98922.38;5228191;28;20288;-58
2022/04/16 04:30:01;;;;;;;5.43;5.03;;;6.70;99.90;;;7.63;77.86;98914.88;5228221;28;20288;-57
2022/04/16 04:32:35;;;;;;;4.93;4.63;;;6.70;99.90;;;7.56;78.53;98921.09;5226914;28;20348;-56
2022/04/16 04:35:10;;;;;;;4.43;4.13;;;6.80;99.90;;;7.66;77.73;98926.19;5228952;28;20307;-55
2022/04/16 04:37:43;;;;;;;4.40;4.10;;;6.80;99.90;;;7.63;77.76;98923.38;5226363;28;20607;-53
2022/04/16 04:40:16;;;;;;;4.97;4.67;;;6.70;99.90;;;7.65;77.22;98921.00;5226711;28;20619;-55
2022/04/16 04:42:49;;;;;;;4.80;4.50;;;6.70;99.90;;;7.70;78.22;98931.53;5225268;28;20639;-52
2022/04/16 04:45:23;;;;;;;5.97;5.50;;;6.80;99.90;;;7.75;78.85;98927.75;5226189;28;20693;-53
2022/04/16 04:47:56;;;;;;;5.20;4.83;;;6.90;99.90;;;7.71;79.73;98925.72;5224977;28;20287;-52
2022/04/16 04:50:30;;;;;;;4.87;4.50;;;7.00;99.90;;;7.72;77.77;98927.47;5223606;28;20240;-53
2022/04/16 04:53:03;;;;;;;5.10;4.80;;;6.90;99.90;;;7.72;78.70;98923.28;5223698;28;20595;-53
2022/04/16 04:55:36;;;;;;;4.87;4.57;;;6.90;99.90;;;7.78;78.83;98928.00;5225594;28;20253;-53
2022/04/16 04:58:09;;;;;;;4.53;4.23;;;7.00;99.90;;;7.67;77.64;98920.34;5224708;28;20202;-52
2022/04/16 05:00:43;;;;;;;5.10;4.80;;;6.80;99.90;;;7.67;78.20;98910.19;5224457;28;20294;-51
2022/04/16 05:03:16;;;;;;;4.67;4.37;;;6.90;99.90;;;7.65;79.13;98914.25;5222211;28;20319;-55
2022/04/16 05:05:49;;;;;;;4.93;4.63;;;6.90;99.90;;;7.65;78.65;98921.88;5225698;28;20671;-52
2022/04/16 05:08:22;;;;;;;5.60;5.20;;;6.90;99.90;;;7.60;78.80;98923.13;5225699;28;20292;-52
2022/04/16 05:10:55;;;;;;;5.40;5.00;;;6.80;99.90;;;7.71;78.16;98918.06;5221655;28;20242;-52
2022/04/16 05:13:29;;;;;;;4.93;4.53;;;6.90;99.90;;;7.78;77.75;98928.00;5221596;28;20280;-56
2022/04/16 05:16:04;;;;;;;5.30;4.90;;;7.00;99.90;;;7.84;78.03;98933.59;5223871;28;20228;-51
2022/04/16 05:18:38;;;;;;;5.10;4.80;;;7.00;99.90;;;7.96;78.57;98931.22;5220512;28;20188;-52
2022/04/16 05:21:11;;;;;;;5.10;4.73;;;7.20;99.90;;;8.09;77.82;98942.56;5224625;28;20661;-56
2022/04/16 05:23:44;;;;;;;5.30;4.90;;;7.30;99.90;;;8.18;78.31;98936.44;5221985;28;20274;-56
2022/04/16 05:26:17;;;;;;;5.30;4.90;;;7.40;99.90;;;8.22;77.08;98943.59;5227578;28;20315;-56
2022/04/16 05:28:50;;;;;;;5.40;5.00;;;7.40;99.90;;;8.21;78.12;98949.44;5221305;28;20288;-56
2022/04/16 05:31:26;;;;;;;5.00;4.70;;;7.50;99.90;;;8.32;77.62;98941.91;5226184;28;20267;-52
2022/04/16 05:36:52;;;;;;;5.03;4.63;;;7.50;99.90;;;8.35;77.29;98946.38;5223758;28;20631;-52
2022/04/16 05:39:25;;;;;;;5.87;5.37;;;7.50;99.90;;;8.34;77.27;98948.03;5222427;28;20243;-56
2022/04/16 05:41:58;;;;;;;5.40;4.90;;;7.60;99.90;;;8.43;76.66;98950.50;5221696;28;20288;-53
2022/04/16 05:44:31;;;;;;;5.57;5.20;;;7.60;99.90;;;8.49;75.85;98955.22;5222420;28;20248;-55
2022/04/16 05:47:06;;;;;;;5.73;5.23;;;7.60;99.90;;;8.46;76.11;98955.84;5220907;28;20293;-52
2022/04/16 05:49:39;;;;;;;5.47;5.07;;;7.60;99.90;;;8.50;76.12;98957.00;5221982;28;20201;-55
2022/04/16 06:08:53;;;;;;;6.47;5.97;;;8.10;99.90;;;8.88;76.36;98972.88;5220982;28;20197;-54
2022/04/16 06:11:28;;;;;;;7.70;6.93;;;8.10;99.90;;;8.93;75.22;98961.41;5220607;28;20236;-57
2022/04/16 06:14:01;;;;;;;8.30;7.40;;;8.10;99.90;;;8.95;76.70;98964.94;5220067;28;20292;-57
2022/04/16 06:16:34;;;;;;;25.90;23.07;;;8.20;99.90;;;8.99;76.80;98963.56;5221362;28;20251;-52
2022/04/16 06:19:07;;;;;;;12.50;10.83;;;8.20;99.90;;;8.99;76.22;98964.47;5222793;28;20193;-54
2022/04/16 06:21:40;;;;;;;8.33;7.63;;;8.20;99.90;;;9.03;76.11;98974.13;5222214;28;20204;-54
2022/04/16 06:24:15;;;;;;;12.43;11.33;;;8.20;99.90;;;9.03;76.37;98973.22;5222407;28;20320;-56
2022/04/16 06:26:48;;;;;;;9.83;8.93;;;8.20;99.90;;;9.12;76.14;98978.19;5214840;28;20695;-55
2022/04/16 06:29:22;;;;;;;9.43;8.63;;;8.30;99.90;;;9.22;75.36;98970.53;5222235;28;20201;-55
2022/04/16 06:31:55;;;;;;;8.63;7.83;;;8.40;99.90;;;9.23;75.28;98977.38;5216500;28;20257;-52
2022/04/16 06:34:28;;;;;;;8.57;7.97;;;8.40;99.90;;;9.14;74.39;98982.66;5219664;28;20208;-54
2022/04/16 06:37:01;;;;;;;7.63;6.97;;;8.30;99.90;;;9.17;74.98;98982.88;5214775;28;20197;-53
2022/04/16 06:39:35;;;;;;;6.17;5.70;;;8.40;99.90;;;9.29;75.01;98982.09;5221116;28;20233;-54
2022/04/16 06:42:08;;;;;;;6.70;6.20;;;8.50;99.90;;;9.30;74.72;98984.78;5221716;28;20704;-54
2022/04/16 06:44:41;;;;;;;6.70;6.20;;;8.60;99.90;;;9.34;75.05;98975.72;5220131;28;20778;-54
2022/04/16 06:47:14;;;;;;;6.63;6.13;;;8.70;99.90;;;9.49;74.43;98976.91;5214958;28;20213;-53
2022/04/16 06:49:47;;;;;;;6.47;5.97;;;8.70;99.90;;;9.55;74.59;98976.50;5221582;28;20918;-54
2022/04/16 06:52:21;;;;;;;7.00;6.50;;;8.80;99.90;;;9.66;73.82;98973.16;5220124;28;20211;-53
2022/04/16 06:54:57;;;;;;;6.43;5.90;;;8.80;99.90;;;9.79;72.83;98981.00;5218144;28;20316;-57
2022/04/16 06:57:30;;;;;;;6.97;6.47;;;8.90;99.90;;;9.81;73.84;98979.44;5223566;28;20288;-57
2022/04/16 07:00:10;;;;;;;7.30;6.70;;;9.00;99.90;;;9.83;73.45;98983.00;5225640;28;20200;-55
2022/04/16 07:02:43;;;;;;;7.13;6.63;;;9.20;99.90;;;9.85;73.45;98978.03;5221668;28;20288;-54
2022/04/16 07:05:16;;;;;;;6.70;6.20;;;9.10;99.90;;;10.03;71.92;98984.56;5224324;28;20229;-53
2022/04/16 07:07:49;;;;;;;6.70;6.10;;;9.20;99.90;;;10.12;72.56;98985.25;5225135;28;20292;-55
2022/04/16 07:10:23;;;;;;;6.40;5.90;;;9.30;99.90;;;10.05;72.90;98983.03;5225163;28;20259;-56
2022/04/16 07:12:56;;;;;;;7.13;6.57;;;9.30;99.90;;;10.06;73.58;98984.78;5224713;28;20555;-56
2022/04/16 07:15:29;;;;;;;6.70;6.10;;;9.40;99.90;;;10.17;71.06;98984.75;5225058;28;20274;-55
2022/04/16 07:18:03;;;;;;;6.40;5.90;;;9.30;99.90;;;10.22;72.62;98984.31;5223157;28;20193;-55
2022/04/16 07:20:36;;;;;;;6.63;6.03;;;9.50;99.90;;;10.20;72.60;98987.53;5216900;28;20642;-53
2022/04/16 07:23:09;;;;;;;7.30;6.80;;;9.50;99.90;;;10.24;72.16;98992.97;5224752;28;20300;-56
2022/04/16 07:25:44;;;;;;;7.00;6.47;;;9.60;99.90;;;10.40;71.15;98996.75;5224244;28;20308;-55
2022/04/16 07:28:21;;;;;;;7.40;6.83;;;9.70;99.90;;;10.48;71.74;98995.66;5216638;28;20188;-54
2022/04/16 07:30:54;;;;;;;7.83;7.03;;;9.70;99.90;;;10.52;71.82;98992.56;5224739;28;20189;-52
2022/04/16 07:33:30;;;;;;;7.93;7.30;;;9.80;99.90;;;10.59;71.66;98997.38;5223911;28;20595;-54
2022/04/16 07:36:04;;;;;;;8.20;7.50;;;9.80;99.90;;;10.75;70.20;98991.72;5224960;28;20732;-52
2022/04/16 07:38:37;;;;;;;8.23;7.53;;;9.90;99.90;;;10.82;69.34;98994.84;5225318;28;20232;-55
2022/04/16 07:41:11;;;;;;;6.87;6.37;;;10.00;99.90;;;10.89;69.56;98980.84;5224821;28;20582;-52
2022/04/16 07:43:44;;;;;;;7.73;7.03;;;10.00;99.90;;;10.86;70.18;98990.84;5225102;28;20204;-57
2022/04/16 07:46:21;;;;;;;8.40;7.63;;;10.10;99.90;;;10.99;69.06;98987.53;5223695;28;20692;-57
2022/04/16 07:48:56;;;;;;;8.23;7.53;;;10.20;99.90;;;11.17;68.58;98994.00;5224269;28;20196;-54
2022/04/16 07:51:30;;;;;;;9.00;8.20;;;10.40;99.90;;;11.09;67.88;98999.34;5223094;28;20645;-56
2022/04/16 07:54:03;;;;;;;8.07;7.37;;;10.30;99.90;;;10.95;67.50;98996.63;5220187;28;20194;-58
2022/04/16 07:56:38;;;;;;;8.83;8.07;;;10.20;99.90;;;10.97;68.00;99005.31;5227335;28;20244;-54
2022/04/16 07:59:13;;;;;;;8.10;7.40;;;10.10;99.90;;;11.04;67.71;98997.34;5222886;28;20295;-56
2022/04/16 08:01:48;;;;;;;11.10;10.10;;;10.20;99.90;;;10.99;67.80;99008.00;5223734;28;21002;-56
2022/04/16 08:04:23;;;;;;;9.33;8.53;;;10.30;99.90;;;11.07;67.42;99000.88;5226925;28;20209;-57
2022/04/16 08:06:57;;;;;;;9.43;8.53;;;10.30;99.90;;;11.31;67.23;99009.47;5228989;28;20208;-58
2022/04/16 08:09:30;;;;;;;9.10;8.30;;;10.50;99.90;;;11.44;66.75;99014.69;5226117;28;20228;-56
2022/04/16 08:12:05;;;;;;;10.47;9.47;;;10.60;99.90;;;11.33;66.74;99007.91;5226558;28;20240;-58
2022/04/16 08:14:38;;;;;;;9.57;8.68;;;10.50;99.90;;;11.20;67.62;99009.56;5225615;28;20476;-59
2022/04/16 08:17:11;;;;;;;8.95;8.07;;;10.50;99.90;;;11.28;66.55;99011.03;5225635;28;20633;-55
2022/04/16 08:19:45;;;;;;;8.93;8.13;;;10.60;99.90;;;11.27;66.54;99016.94;5226386;28;20280;-56
2022/04/16 08:22:21;;;;;;;9.23;8.33;;;10.60;99.90;;;11.18;66.84;99016.22;5226157;28;20237;-58
2022/04/16 08:27:47;;;;;;;8.13;7.50;;;10.60;99.90;;;11.44;67.22;99028.38;5223644;28;20287;-53
2022/04/16 08:30:21;;;;;;;8.80;8.00;;;10.70;99.90;;;11.47;67.36;99023.50;5227065;28;20291;-53
2022/04/16 08:32:54;;;;;;;8.60;7.80;;;10.70;99.90;;;11.67;66.17;99024.91;5227653;28;20596;-55
2022/04/16 08:35:28;;;;;;;8.93;8.02;;;10.90;99.90;;;11.63;66.57;99028.03;5226513;28;20240;-53
2022/04/16 08:38:01;;;;;;;10.20;9.20;;;10.80;99.90;;;11.55;66.66;99034.28;5227692;28;20197;-54
2022/04/16 08:40:34;;;;;;;9.93;9.02;;;10.90;99.90;;;11.52;68.29;99033.16;5226504;28;20225;-54
2022/04/16 08:43:09;;;;;;;10.88;9.88;;;10.90;99.90;;;11.81;66.44;99032.69;5223041;28;20634;-55
2022/04/16 08:45:43;;;;;;;11.45;10.35;;;11.10;99.90;;;12.00;65.32;99040.94;5227928;28;20278;-61
2022/04/16 08:48:16;;;;;;;10.13;9.23;;;11.20;99.90;;;11.97;65.73;99035.59;5227834;28;20288;-54
2022/04/16 08:50:49;;;;;;;11.50;10.40;;;11.20;99.90;;;11.71;65.42;99042.28;5226658;28;20225;-54
2022/04/16 08:53:22;;;;;;;12.10;10.95;;;11.00;99.90;;;11.71;65.50;99038.84;5225551;28;20738;-53
2022/04/16 08:55:55;;;;;;;11.40;10.35;;;10.90;99.90;;;11.69;66.17;99042.94;5227124;28;20300;-55
2022/04/16 08:58:31;;;;;;;10.98;9.98;;;10.90;99.90;;;11.66;66.01;99045.28;5225483;28;20232;-53
2022/04/16 09:01:10;;;;;;;11.20;10.20;;;11.00;99.90;;;11.76;65.70;99044.28;5225282;28;20223;-55
2022/04/16 09:03:43;;;;;;;12.10;10.90;;;10.90;99.90;;;11.51;65.80;99047.66;5219117;28;20292;-54
2022/04/16 09:06:23;;;;;;;13.20;12.00;;;10.80;99.90;;;11.42;66.06;99052.09;5225353;28;20279;-54
2022/04/16 09:08:56;;;;;;;12.15;11.05;;;10.70;99.90;;;11.43;65.92;99048.75;5223297;28;20677;-52
2022/04/16 09:11:29;;;;;;;10.70;9.70;;;10.70;99.90;;;11.34;67.34;99054.09;5222398;28;20300;-51
2022/04/16 09:14:04;;;;;;;14.95;13.40;;;10.70;99.90;;;11.54;65.62;99053.00;5226781;28;20198;-51
2022/04/16 09:16:40;;;;;;;21.38;19.48;;;10.80;99.90;;;11.59;65.70;99054.22;5224679;28;20230;-55
2022/04/16 09:19:16;;;;;;;48.03;44.83;;;10.90;99.90;;;11.72;66.66;99046.63;5217722;28;20204;-54
2022/04/16 09:21:49;;;;;;;79.47;74.70;;;11.00;99.90;;;11.75;66.50;99053.63;5221848;28;20266;-56
2022/04/16 09:24:22;;;;;;;53.38;49.45;;;11.20;99.90;;;12.00;65.20;99051.19;5223083;28;20296;-51
2022/04/16 09:26:55;;;;;;;48.80;45.75;;;11.40;99.90;;;12.21;64.93;99059.47;5221481;28;20316;-55
2022/04/16 09:29:30;;;;;;;20.75;19.10;;;11.60;99.90;;;12.38;63.88;99051.28;5223964;28;20239;-51
2022/04/16 09:32:03;;;;;;;20.77;19.25;;;11.80;99.90;;;12.59;63.53;99049.31;5223060;28;20228;-52
2022/04/16 09:34:36;;;;;;;20.65;19.15;;;11.90;99.90;;;12.70;62.65;99059.41;5226052;28;20287;-56
2022/04/16 09:37:15;;;;;;;20.63;19.15;;;12.00;99.90;;;12.80;61.79;99057.59;5223890;28;20224;-55
2022/04/16 09:39:49;;;;;;;12.13;11.02;;;12.10;99.90;;;12.54;60.66;99065.19;5216736;28;20593;-55
2022/04/16 09:42:26;;;;;;;13.80;12.55;;;11.90;99.90;;;12.33;61.83;99067.13;5223231;28;20211;-53
2022/04/16 09:45:02;;;;;;;13.40;12.20;;;11.60;99.90;;;12.41;62.44;99071.13;5220388;28;20303;-52
2022/04/16 09:47:35;;;;;;;11.75;10.75;;;11.70;99.90;;;12.38;62.81;99065.78;5218085;28;20308;-56
2022/04/16 09:50:11;;;;;;;12.00;10.90;;;11.70;99.90;;;12.45;61.79;99062.88;5223168;28;20237;-55
2022/04/16 09:52:44;;;;;;;12.52;11.38;;;11.80;99.90;;;12.46;61.73;99068.88;5223735;28;20216;-52
2022/04/16 09:55:21;;;;;;;11.27;10.38;;;11.70;99.90;;;12.65;60.97;99071.03;5221297;28;20303;-52
2022/04/16 09:57:58;;;;;;;10.88;9.88;;;11.90;99.90;;;12.46;61.22;99064.66;5221726;28;20232;-53
2022/04/16 10:00:37;;;;;;;10.93;9.88;;;11.80;99.90;;;12.78;60.72;99059.13;5218366;28;20292;-52
2022/04/16 10:03:32;;;;;;;10.88;9.88;;;12.00;99.90;;;12.82;59.36;99062.81;5222196;28;20209;-55
2022/04/16 10:06:07;;;;;;;10.13;9.10;;;12.10;99.30;;;12.86;58.51;99067.38;5222621;28;20225;-54
2022/04/16 10:08:41;;;;;;;10.15;9.15;;;12.10;98.90;;;12.66;58.17;99066.00;5222084;28;20300;-52
2022/04/16 10:11:20;;;;;;;9.20;8.40;;;12.10;98.10;;;12.75;57.43;99071.75;5220019;28;20732;-53
2022/04/16 10:14:04;;;;;;;9.35;8.55;;;12.10;97.90;;;12.87;59.21;99073.38;5217404;28;20700;-52
2022/04/16 10:16:50;;;;;;;8.57;7.82;;;12.20;98.60;;;12.70;57.47;99061.97;5217844;28;20245;-54
2022/04/16 10:19:23;;;;;;;8.20;7.47;;;12.10;97.60;;;12.92;57.53;99069.47;5222263;28;20283;-56
2022/04/16 10:21:56;;;;;;;9.13;8.32;;;12.40;97.50;;;13.24;56.50;99062.22;5223611;28;20288;-53
2022/04/16 10:24:29;;;;;;;8.75;7.95;;;12.60;97.10;;;13.07;57.69;99066.22;5223447;28;20619;-55
2022/04/16 10:27:08;;;;;;;9.23;8.35;;;12.30;97.50;;;13.16;55.78;99068.53;5222986;28;20304;-53
2022/04/16 10:29:41;;;;;;;10.18;9.18;;;12.50;96.50;;;12.91;55.99;99071.13;5220936;28;20665;-53
2022/04/16 10:32:19;;;;;;;9.80;8.90;;;12.30;96.90;;;12.71;56.20;99076.59;5220807;28;20237;-53
2022/04/16 10:35:04;;;;;;;10.27;9.27;;;12.10;96.70;;;12.59;55.91;99079.19;5222952;28;20213;-54
2022/04/16 10:37:42;;;;;;;9.32;8.43;;;11.90;96.70;;;12.67;55.65;99079.72;5216141;28;20189;-53
2022/04/16 10:40:18;;;;;;;9.30;8.45;;;12.00;96.30;;;12.48;56.02;99081.03;5221916;28;20272;-53
2022/04/16 10:42:53;;;;;;;8.65;7.85;;;11.80;96.40;;;12.52;55.96;99074.44;5219895;28;20240;-54
2022/04/16 10:45:26;;;;;;;9.00;8.10;;;11.90;96.40;;;12.78;55.96;99078.78;5221206;28;20220;-56
2022/04/16 10:48:04;;;;;;;9.88;8.88;;;12.10;96.30;;;12.74;56.54;99077.69;5222189;28;20720;-51
2022/04/16 10:50:38;;;;;;;9.63;8.73;;;12.20;96.30;;;12.93;54.38;99079.81;5219904;28;20204;-55
2022/04/16 10:53:11;;;;;;;9.73;8.55;;;12.30;95.50;;;12.98;54.78;99075.88;5222415;28;20231;-53
2022/04/16 10:55:49;;;;;;;10.52;9.55;;;12.30;95.60;;;13.23;55.11;99080.09;5221926;28;20241;-55
2022/04/16 10:58:30;;;;;;;9.77;8.88;;;12.50;95.70;;;13.33;53.91;99071.34;5220076;28;20678;-55
2022/04/16 11:01:08;;;;;;;10.00;9.00;;;12.60;95.50;;;13.72;51.76;99080.75;5221155;28;20284;-57
2022/04/16 11:03:48;;;;;;;9.45;8.65;;;13.00;94.50;;;13.72;51.68;99076.50;5217703;28;20192;-54
2022/04/16 11:06:22;;;;;;;10.30;9.20;;;13.00;94.00;;;13.65;52.54;99081.13;5221343;28;20302;-52
2022/04/16 11:08:59;;;;;;;10.68;9.68;;;13.00;93.80;;;13.56;52.54;99071.16;5218831;28;20560;-52
2022/04/16 11:11:32;;;;;;;10.45;9.52;;;13.00;93.80;;;13.37;52.22;99074.22;5216377;28;20220;-56
2022/04/16 11:14:08;;;;;;;11.32;10.32;;;12.80;94.00;;;13.10;53.41;99080.94;5220475;28;20189;-55
2022/04/16 11:16:45;;;;;;;10.82;9.73;;;12.60;94.10;;;13.37;53.87;99078.47;5219003;28;20787;-55
2022/04/16 11:19:20;;;;;;;10.32;9.38;;;12.70;94.50;;;13.47;53.38;99076.59;5224457;28;20201;-56
2022/04/16 11:21:53;;;;;;;10.15;9.20;;;12.90;94.50;;;13.78;51.93;99072.56;5221361;28;20204;-53
2022/04/16 11:24:32;;;;;;;10.68;9.57;;;13.10;94.00;;;13.73;51.50;99068.03;5220533;28;20208;-56
2022/04/16 11:35:40;;;;;;;9.57;8.73;;;13.10;92.60;;;14.09;50.97;99075.41;5225123;28;20291;-54
2022/04/16 11:38:13;;;;;;;10.43;9.25;;;13.40;93.10;;;13.98;50.98;99061.84;5224013;28;20576;-53
2022/04/16 11:40:46;;;;;;;11.25;10.07;;;13.30;93.20;;;14.07;51.60;99062.44;5224844;28;20376;-55